Salisbury, Connecticut
Current Conditions -  °F | °C
As of 1:54 AM on Monday 24 Nov 2014 (Local Time) from KPSF Reporting Station
Overcast Overcast  
Wind Chill: 33°   Ceiling: 2400
Heat Index: 37°   Visibility: 9mi
Dew Point: 34°   Wind: 5mph
Humidity: 89%   Direction: 30°NNE
Pressure: 29.93"   Gusts: NA
Location:  41.98°N, 73.42°W
Report Text: KPSF 240654Z AUTO 03004KT 9SM BKN024 OVC028 03/01 A2993 RMK AO2 SLP130 T00280011
Loading
Personal Weather Stations






























Interactive Weather Map New forecast layout! Learn more

10-Day Weather Forecast

Advertisements
Track Severe Weather on mobile